Naperville, Illinois
Current Conditions -  °F | °C
As of 8:52 AM on Sunday 23 Nov 2014 (Local Time) from KDPA Reporting Station
Light Rain Light Rain  
Wind Chill: 44°   Ceiling: 4200
Heat Index: 49°   Visibility: 8mi
Dew Point: 44°   Wind: 13mph
Humidity: 83%   Direction: 180°S
Pressure: 29.73"   Gusts: NA
Location:  41.77°N, 88.15°W
Report Text: KDPA 231452Z 18011KT 8SM -RA BKN042 OVC080 09/07 A2973 RMK AO2 RAB48 SLP068 P0000 60000 T00940067 58004
Loading
Personal Weather Stations






























Interactive Weather Map New forecast layout! Learn more

10-Day Weather Forecast

Advertisements
Track Severe Weather on mobile